Time;durP1;ratioP1;P1;durP2;ratioP2;P2;SDS_P1;SDS_P2;PMS_P1;PMS_P2;Temp;Humidity;BMP_temperature;BMP_pressure;BME280_temperature;BME280_humidity;BME280_pressure;Samples;Min_cycle;Max_cycle;Signal;HPM_P1;HPM_P2
2023/01/15 00:03:57;;;;;;;2.35;1.20;;;;;;;-146.19;100.00;65364.44;10597705;28;20050;-58
2023/01/15 00:09:16;;;;;;;2.20;1.10;;;;;;;-146.19;100.00;65364.44;10583856;28;20399;-58
2023/01/15 00:14:36;;;;;;;1.75;1.10;;;;;;;-146.19;100.00;65364.44;10597222;28;20040;-58
2023/01/15 00:19:55;;;;;;;1.55;1.00;;;;;;;-146.19;100.00;65364.44;10583432;28;20055;-58
2023/01/15 00:30:53;;;;;;;1.42;0.90;;;;;;;-146.19;100.00;65364.44;10583025;28;20052;-58
2023/01/15 00:36:12;;;;;;;1.83;0.98;;;;;;;-146.19;100.00;65364.44;10582777;28;20051;-58
2023/01/15 00:41:32;;;;;;;2.33;1.30;;;;;;;-146.19;100.00;65364.44;10582638;28;20051;-58
2023/01/15 00:46:51;;;;;;;2.60;1.13;;;;;;;-146.19;100.00;65364.44;10581958;28;20079;-58
2023/01/15 00:52:13;;;;;;;2.10;1.02;;;;;;;-146.19;100.00;65364.44;10582398;28;20055;-58
2023/01/15 00:57:33;;;;;;;1.40;1.05;;;;;;;-146.19;100.00;65364.44;10582138;28;20051;-57
2023/01/15 01:02:52;;;;;;;1.63;0.80;;;;;;;20.18;51.70;95766.44;10566669;28;20101;-58
2023/01/15 01:08:12;;;;;;;2.28;1.17;;;;;;;20.17;51.62;95755.97;10581900;28;20055;-57
2023/01/15 01:13:32;;;;;;;2.03;0.90;;;;;;;20.16;51.68;95749.78;10581641;28;20047;-58
2023/01/15 01:18:53;;;;;;;1.70;1.00;;;;;;;20.12;51.58;95747.00;10580911;28;20105;-57
2023/01/15 01:24:16;;;;;;;1.45;0.90;;;;;;;20.12;51.61;95748.94;10581559;28;20048;-58
2023/01/15 01:29:36;;;;;;;1.60;0.70;;;;;;;20.10;51.56;95737.69;10580734;28;20109;-58
2023/01/15 01:34:56;;;;;;;1.33;0.77;;;;;;;20.09;51.60;95744.22;10565892;28;20051;-58
2023/01/15 01:40:17;;;;;;;2.90;1.20;;;;;;;20.09;51.62;95734.22;10590726;28;20051;-58
2023/01/15 01:45:37;;;;;;;1.88;0.80;;;;;;;20.07;51.68;95727.56;10623069;28;20054;-58
2023/01/15 01:50:59;;;;;;;2.13;0.90;;;;;;;20.06;51.64;95710.56;10622807;28;20573;-58
2023/01/15 01:56:19;;;;;;;1.02;0.80;;;;;;;20.04;51.57;95704.75;10623268;28;20047;-58
2023/01/15 02:01:39;;;;;;;1.25;0.80;;;;;;;20.03;51.57;95710.50;10614240;27;20047;-58
2023/01/15 02:06:59;;;;;;;1.73;0.90;;;;;;;20.01;51.61;95701.97;10616160;27;20074;-58
2023/01/15 02:12:25;;;;;;;1.55;0.80;;;;;;;20.00;51.59;95703.09;10631262;27;20178;-58
2023/01/15 02:18:00;;;;;;;1.40;0.85;;;;;;;19.99;51.70;95698.81;10629172;27;20039;-58
2023/01/15 02:23:30;;;;;;;2.15;0.90;;;;;;;19.97;51.59;95693.75;10630844;27;20070;-58
2023/01/15 02:28:53;;;;;;;1.00;0.70;;;;;;;19.95;51.58;95685.22;10630663;27;20051;-58
2023/01/15 02:34:16;;;;;;;1.33;0.95;;;;;;;19.95;51.59;95679.81;10599981;27;20055;-58
2023/01/15 02:39:39;;;;;;;1.33;0.80;;;;;;;19.93;51.60;95677.50;10628421;27;20039;-58
2023/01/15 02:45:01;;;;;;;1.00;0.70;;;;;;;19.91;51.70;95663.53;10614198;27;20418;-58
2023/01/15 02:50:26;;;;;;;1.38;0.70;;;;;;;19.90;51.52;95656.56;10600120;27;20051;-56
2023/01/15 02:55:48;;;;;;;0.88;0.65;;;;;;;19.89;51.60;95660.38;10614092;27;20051;-57
2023/01/15 03:01:17;;;;;;;1.25;0.88;;;;;;;19.87;51.60;95651.84;10613926;27;20047;-58
2023/01/15 03:06:38;;;;;;;1.25;0.80;;;;;;;19.87;51.53;95653.78;10599464;27;20058;-57
2023/01/15 03:12:16;;;;;;;1.10;0.70;;;;;;;19.84;51.55;95649.88;10612418;27;20407;-57
2023/01/15 03:17:52;;;;;;;1.05;0.80;;;;;;;19.83;51.62;95631.31;10613238;27;20055;-58
2023/01/15 03:23:12;;;;;;;0.85;0.57;;;;;;;19.83;51.62;95623.19;10628515;27;20148;-57
2023/01/15 03:28:35;;;;;;;0.63;0.60;;;;;;;19.81;51.61;95623.53;10628343;27;20051;-58
2023/01/15 03:33:55;;;;;;;1.02;0.60;;;;;;;19.79;51.62;95606.91;10598315;27;20051;-57
2023/01/15 03:39:16;;;;;;;0.75;0.60;;;;;;;19.79;51.69;95601.50;10612348;27;20456;-57
2023/01/15 03:44:59;;;;;;;1.10;0.60;;;;;;;19.78;51.52;95588.34;10611810;27;20119;-58
2023/01/15 03:50:23;;;;;;;1.65;0.80;;;;;;;19.75;51.70;95595.25;10627485;27;20055;-58
2023/01/15 03:55:50;;;;;;;1.08;0.80;;;;;;;19.74;51.56;95589.06;10626990;27;20116;-58
2023/01/15 04:01:14;;;;;;;2.63;0.87;;;;;;;19.73;51.57;95578.59;10626815;27;20108;-58
2023/01/15 04:06:35;;;;;;;0.77;0.50;;;;;;;19.71;51.54;95562.72;10596940;27;20043;-58
2023/01/15 04:11:59;;;;;;;1.20;0.90;;;;;;;19.70;51.53;95554.97;10596876;27;20054;-57
2023/01/15 04:17:20;;;;;;;0.80;0.70;;;;;;;19.68;51.54;95541.00;10626061;27;20055;-58
2023/01/15 04:22:40;;;;;;;1.15;0.70;;;;;;;19.67;51.59;95542.16;10625551;27;20055;-58
2023/01/15 04:27:59;;;;;;;0.80;0.63;;;;;;;19.66;51.66;95533.28;10625734;27;20051;-58
2023/01/15 04:33:19;;;;;;;0.60;0.60;;;;;;;19.65;51.59;95530.94;10625519;27;20055;-58
2023/01/15 04:38:39;;;;;;;0.80;0.45;;;;;;;19.64;51.59;95537.47;10625439;27;20078;-58
2023/01/15 04:44:08;;;;;;;0.68;0.55;;;;;;;19.63;51.66;95530.50;10624944;27;20043;-58
2023/01/15 04:49:27;;;;;;;1.42;0.77;;;;;;;19.60;51.62;95523.91;10625046;27;20061;-58
2023/01/15 04:54:47;;;;;;;0.50;0.50;;;;;;;19.60;51.57;95536.59;10609227;27;20062;-58
2023/01/15 05:00:07;;;;;;;1.38;0.70;;;;;;;19.59;51.58;95526.94;10608543;27;20055;-58
2023/01/15 05:05:26;;;;;;;1.02;0.70;;;;;;;19.58;51.53;95525.38;10623826;27;20054;-57
2023/01/15 05:10:46;;;;;;;1.40;0.60;;;;;;;19.55;51.54;95526.88;10617093;27;20050;-58
2023/01/15 05:16:27;;;;;;;1.05;0.60;;;;;;;19.55;51.48;95527.66;10601464;27;20048;-57
2023/01/15 05:21:46;;;;;;;0.45;0.45;;;;;;;19.53;51.48;95512.94;10601764;27;20415;-57
2023/01/15 05:27:06;;;;;;;0.82;0.68;;;;;;;19.52;51.58;95501.34;10601434;27;20047;-58
2023/01/15 05:32:25;;;;;;;0.65;0.60;;;;;;;19.51;51.54;95509.81;10614890;27;20544;-58
2023/01/15 05:37:44;;;;;;;0.90;0.50;;;;;;;19.49;51.52;95496.66;10603173;28;20483;-58
2023/01/15 05:43:03;;;;;;;0.60;0.50;;;;;;;19.49;51.53;95490.47;10589869;28;20047;-57
2023/01/15 05:48:23;;;;;;;1.02;0.60;;;;;;;19.47;51.47;95496.22;10588974;28;20074;-58
2023/01/15 05:53:42;;;;;;;0.57;0.50;;;;;;;19.45;51.53;95490.41;10602899;28;20039;-58
2023/01/15 05:59:02;;;;;;;0.65;0.40;;;;;;;19.44;51.55;95501.56;10588622;28;20511;-58
2023/01/15 06:04:23;;;;;;;0.40;0.40;;;;;;;19.42;51.60;95485.69;10588994;28;20056;-58
2023/01/15 06:09:43;;;;;;;0.40;0.40;;;;;;;19.42;51.54;95491.09;10602269;28;20407;-58
2023/01/15 06:15:03;;;;;;;0.50;0.50;;;;;;;19.40;51.43;95481.78;10588530;28;20040;-58
2023/01/15 06:20:22;;;;;;;0.50;0.50;;;;;;;19.39;51.56;95472.91;10588396;28;20051;-58
2023/01/15 06:25:42;;;;;;;1.30;0.40;;;;;;;19.39;51.63;95472.16;10601691;28;20048;-58
2023/01/15 06:31:09;;;;;;;0.50;0.40;;;;;;;19.37;51.58;95467.09;10601563;28;20093;-58
2023/01/15 06:36:29;;;;;;;0.70;0.47;;;;;;;19.35;51.53;95480.94;10587752;28;20047;-58
2023/01/15 06:47:27;;;;;;;0.70;0.40;;;;;;;19.32;51.66;95470.06;10586472;28;20056;-57
2023/01/15 06:52:46;;;;;;;0.60;0.60;;;;;;;19.31;51.69;95472.00;10587175;28;20062;-58
2023/01/15 06:58:05;;;;;;;0.60;0.55;;;;;;;19.31;51.52;95455.00;10600413;28;20104;-58
2023/01/15 07:03:25;;;;;;;0.45;0.40;;;;;;;19.29;51.59;95443.78;10600224;28;20039;-58
2023/01/15 07:08:45;;;;;;;0.70;0.40;;;;;;;19.29;51.56;95443.78;10586514;28;20055;-58
2023/01/15 07:14:05;;;;;;;0.35;0.35;;;;;;;19.29;51.58;95449.97;10586295;28;20384;-58
2023/01/15 07:19:25;;;;;;;0.75;0.50;;;;;;;19.30;51.57;95442.63;10599717;28;20042;-58
2023/01/15 07:24:44;;;;;;;0.55;0.30;;;;;;;19.30;51.58;95453.44;10599543;28;20483;-58
2023/01/15 07:30:04;;;;;;;0.40;0.30;;;;;;;19.30;51.64;95448.81;10585705;28;20067;-58
2023/01/15 07:35:23;;;;;;;0.40;0.40;;;;;;;19.32;51.54;95448.47;10585439;28;20054;-58
2023/01/15 07:40:43;;;;;;;0.50;0.50;;;;;;;19.33;51.54;95447.34;10587412;27;20051;-58
2023/01/15 07:51:40;;;;;;;0.43;0.43;;;;;;;19.34;51.48;95455.06;10604513;27;20445;-58
2023/01/15 07:57:00;;;;;;;0.52;0.30;;;;;;;19.35;51.42;95443.13;10590092;27;20040;-58
2023/01/15 08:02:19;;;;;;;0.65;0.45;;;;;;;19.35;51.40;95435.03;10619086;27;20050;-58
2023/01/15 08:07:40;;;;;;;0.32;0.30;;;;;;;19.37;51.34;95429.28;10599182;27;20487;-57
2023/01/15 08:18:38;;;;;;;0.43;0.22;;;;;;;19.41;51.54;95413.94;10587396;27;20055;-60
2023/01/15 08:23:58;;;;;;;1.38;0.43;;;;;;;-146.19;100.00;65364.44;10618128;27;20054;-59
2023/01/15 08:29:18;;;;;;;0.40;0.40;;;;;;;-146.19;100.00;65364.44;10625640;27;20054;-59
2023/01/15 08:34:38;;;;;;;6.22;0.90;;;;;;;-146.19;100.00;65364.44;10617184;27;20062;-58
2023/01/15 08:39:57;;;;;;;5.43;0.90;;;;;;;-146.19;100.00;65364.44;10582067;28;20495;-58
2023/01/15 08:45:17;;;;;;;5.30;0.90;;;;;;;-146.19;100.00;65364.44;10590814;28;20412;-59
2023/01/15 08:50:36;;;;;;;4.20;0.80;;;;;;;-146.19;100.00;65364.44;10582379;28;20059;-59
2023/01/15 08:55:55;;;;;;;4.43;0.80;;;;;;;19.56;52.65;95425.78;10598584;27;20051;-62
2023/01/15 09:01:15;;;;;;;3.47;1.00;;;;;;;19.58;52.42;95428.13;10624585;27;20445;-60
2023/01/15 09:06:35;;;;;;;3.10;0.90;;;;;;;19.59;52.24;95414.25;10624528;27;20424;-62
2023/01/15 09:11:54;;;;;;;3.95;0.80;;;;;;;19.63;52.27;95427.84;10624372;27;20055;-59
2023/01/15 09:17:13;;;;;;;1.98;0.80;;;;;;;19.64;52.18;95410.47;10624215;27;20054;-60
2023/01/15 09:22:33;;;;;;;2.97;0.80;;;;;;;19.66;52.10;95410.91;10623991;27;20434;-59
2023/01/15 09:27:55;;;;;;;1.15;0.60;;;;;;;19.68;52.15;95405.91;10623945;27;20448;-61
2023/01/15 09:33:14;;;;;;;4.00;0.80;;;;;;;19.70;52.07;95403.66;10637427;27;20093;-59
2023/01/15 09:38:34;;;;;;;0.88;0.50;;;;;;;19.72;52.05;95404.13;10623685;28;20074;-59
2023/01/15 09:43:59;;;;;;;2.08;0.60;;;;;;;19.75;52.07;95389.88;10635786;27;20054;-59
2023/01/15 09:49:25;;;;;;;2.55;0.52;;;;;;;-146.19;100.00;65364.44;10622903;28;20039;-59
2023/01/15 09:54:48;;;;;;;2.13;0.60;;;;;;;-146.19;100.00;65364.44;10622010;28;20047;-58
2023/01/15 10:00:15;;;;;;;1.85;0.55;;;;;;;-146.19;100.00;65364.44;10636965;27;20505;-58
2023/01/15 10:05:52;;;;;;;0.80;0.50;;;;;;;19.75;52.07;95389.88;10607819;28;20051;-58
2023/01/15 10:11:14;;;;;;;0.85;0.60;;;;;;;19.79;45.53;95355.59;10606711;28;20051;-60
2023/01/15 10:16:34;;;;;;;0.93;0.75;;;;;;;19.67;42.44;95344.94;10612799;27;20390;-58
2023/01/15 10:22:05;;;;;;;2.25;0.80;;;;;;;19.58;40.66;95350.56;10606588;27;20044;-59
2023/01/15 10:27:28;;;;;;;0.70;0.70;;;;;;;-146.19;100.00;65364.44;10601915;27;20055;-58
2023/01/15 10:32:55;;;;;;;1.13;0.73;;;;;;;-146.19;100.00;65364.44;10593973;27;20511;-57
2023/01/15 10:38:19;;;;;;;0.82;0.80;;;;;;;-146.19;100.00;65364.44;10600424;27;20035;-57
2023/01/15 10:43:52;;;;;;;0.95;0.75;;;;;;;-146.19;100.00;65364.44;10607780;27;20047;-57
2023/01/15 10:49:14;;;;;;;1.05;0.82;;;;;;;-146.19;100.00;65364.44;10593164;27;20051;-56
2023/01/15 10:54:43;;;;;;;0.80;0.80;;;;;;;-146.19;100.00;65364.44;10589236;27;20479;-57
2023/01/15 11:00:04;;;;;;;0.77;0.60;;;;;;;-146.19;100.00;65364.44;10607937;27;20070;-58
2023/01/15 11:05:24;;;;;;;1.75;0.70;;;;;;;-146.19;100.00;65364.44;10606070;27;20055;-57
2023/01/15 11:10:44;;;;;;;1.27;0.70;;;;;;;-146.19;100.00;65364.44;10624680;27;20059;-57
2023/01/15 11:21:42;;;;;;;;;;;;;;;19.92;47.14;95396.75;10619702;27;20058;-59
2023/01/15 11:27:03;;;;;;;0.70;0.70;;;;;;;19.93;47.46;95399.09;10615748;27;19919;-60
2023/01/15 11:32:31;;;;;;;2.13;0.70;;;;;;;19.96;47.61;95405.69;10586705;27;20101;-58
2023/01/15 11:38:14;;;;;;;2.38;0.93;;;;;;;19.98;47.78;95397.22;10620193;27;20055;-59
2023/01/15 11:54:57;;;;;;;0.65;0.60;;;;;;;-146.19;100.00;65364.44;10604813;27;20043;-59
2023/01/15 12:00:25;;;;;;;0.60;0.60;;;;;;;-146.19;100.00;65364.44;10603537;27;20057;-59
2023/01/15 12:06:08;;;;;;;0.70;0.70;;;;;;;20.06;48.29;95420.53;10585474;27;20456;-59
2023/01/15 12:12:06;;;;;;;1.00;0.68;;;;;;;20.07;48.34;95435.59;10602235;27;20047;-59
2023/01/15 12:17:32;;;;;;;0.73;0.60;;;;;;;20.09;48.60;95449.53;10599770;27;20047;-58
2023/01/15 12:23:19;;;;;;;0.85;0.60;;;;;;;20.11;48.75;95452.66;10583492;28;20104;-59
2023/01/15 12:28:47;;;;;;;1.30;0.57;;;;;;;20.14;48.97;95468.16;10583387;28;20058;-59
2023/01/15 12:34:16;;;;;;;2.95;1.08;;;;;;;20.15;49.25;95467.03;10581270;28;20047;-58
2023/01/15 12:39:42;;;;;;;10.88;3.40;;;;;;;20.17;49.24;95478.28;10583015;28;20051;-58
2023/01/15 12:45:07;;;;;;;25.23;14.93;;;;;;;20.18;49.74;95476.34;10591584;28;20063;-58
2023/01/15 12:50:47;;;;;;;28.98;16.80;;;;;;;20.21;50.47;95489.94;10567323;28;20063;-58
2023/01/15 12:56:19;;;;;;;43.53;29.05;;;;;;;20.22;50.86;95482.59;10567112;28;20059;-58
2023/01/15 13:01:48;;;;;;;53.05;31.95;;;;;;;20.23;51.07;95495.75;10582288;28;20059;-57
2023/01/15 13:07:38;;;;;;;59.58;38.60;;;;;;;20.26;52.59;95534.81;10566676;28;20043;-58
2023/01/15 13:13:07;;;;;;;57.20;38.88;;;;;;;20.28;52.71;95524.41;10559150;28;20055;-58
2023/01/15 13:18:30;;;;;;;53.33;36.55;;;;;;;20.29;52.25;95534.88;10574295;27;20414;-56
2023/01/15 13:24:02;;;;;;;51.75;35.05;;;;;;;20.31;52.45;95540.72;10580366;28;20058;-58
2023/01/15 13:29:28;;;;;;;49.75;36.60;;;;;;;20.33;52.97;95526.84;10594871;28;20048;-59
2023/01/15 13:35:19;;;;;;;48.55;34.95;;;;;;;20.35;54.31;95544.25;10580066;28;20051;-58
2023/01/15 13:40:43;;;;;;;53.45;37.88;;;;;;;20.37;53.71;95572.88;10579429;28;20395;-59
2023/01/15 13:46:04;;;;;;;48.65;37.47;;;;;;;20.39;54.26;95587.59;10580418;28;20059;-58
2023/01/15 13:51:41;;;;;;;49.50;37.13;;;;;;;20.41;54.54;95592.66;10592681;27;20095;-59
2023/01/15 13:57:34;;;;;;;51.13;36.28;;;;;;;-146.19;100.00;65364.44;10616623;27;20043;-59
2023/01/15 14:02:59;;;;;;;50.70;36.33;;;;;;;-146.19;100.00;65364.44;10607338;27;20473;-58
2023/01/15 14:08:25;;;;;;;45.20;33.80;;;;;;;-146.19;100.00;65364.44;10587780;28;20495;-56
2023/01/15 14:14:01;;;;;;;42.28;31.30;;;;;;;-146.19;100.00;65364.44;10578715;28;20112;-60
2023/01/15 14:19:30;;;;;;;41.10;30.20;;;;;;;-146.19;100.00;65364.44;10573151;28;20048;-57
2023/01/15 14:25:02;;;;;;;37.95;27.58;;;;;;;-146.19;100.00;65364.44;10588271;28;20048;-61
2023/01/15 14:30:31;;;;;;;33.78;26.42;;;;;;;-146.19;100.00;65364.44;10601570;28;20040;-57
2023/01/15 14:35:52;;;;;;;31.83;24.50;;;;;;;-146.19;100.00;65364.44;10587678;28;20104;-60
2023/01/15 14:41:12;;;;;;;28.27;23.10;;;;;;;-146.19;100.00;65364.44;10587688;28;20052;-57
2023/01/15 14:46:33;;;;;;;29.65;22.33;;;;;;;-146.19;100.00;65364.44;10571896;28;20060;-59
2023/01/15 14:51:53;;;;;;;27.27;21.52;;;;;;;-146.19;100.00;65364.44;10571907;28;20063;-58
2023/01/15 14:57:13;;;;;;;32.13;22.58;;;;;;;20.41;54.54;95592.66;10587045;28;20044;-56
2023/01/15 15:02:38;;;;;;;24.33;21.60;;;;;;;-146.19;100.00;65364.44;10571662;28;20117;-56
2023/01/15 15:07:57;;;;;;;30.00;21.83;;;;;;;-146.19;100.00;65364.44;10584594;28;20415;-56
2023/01/15 15:13:26;;;;;;;27.02;20.23;;;;;;;-146.19;100.00;65364.44;10585478;28;20499;-58
2023/01/15 15:19:39;;;;;;;26.85;20.13;;;;;;;-146.19;100.00;65364.44;10586126;28;20048;-57
2023/01/15 15:25:00;;;;;;;26.08;20.35;;;;;;;-146.19;100.00;65364.44;10539455;28;20051;-59
2023/01/15 15:30:20;;;;;;;27.10;20.05;;;;;;;20.46;55.70;95814.97;10585150;28;20047;-58
2023/01/15 15:35:43;;;;;;;25.52;19.70;;;;;;;-146.19;100.00;65364.44;10599180;28;20043;-59
2023/01/15 15:41:05;;;;;;;17.42;12.57;;;;;;;-146.19;100.00;65364.44;10570006;28;20059;-58
2023/01/15 15:52:18;;;;;;;2.30;2.00;;;;;;;19.82;37.13;95837.84;10584887;28;20085;-57
2023/01/15 15:57:38;;;;;;;1.80;1.30;;;;;;;-146.19;100.00;65364.44;10569032;28;20051;-59
2023/01/15 16:03:03;;;;;;;5.28;4.07;;;;;;;-146.19;100.00;65364.44;10604084;27;20048;-57
2023/01/15 16:08:23;;;;;;;4.97;3.20;;;;;;;-146.19;100.00;65364.44;10589409;27;20164;-58
2023/01/15 16:13:48;;;;;;;4.05;2.92;;;;;;;-146.19;100.00;65364.44;10618382;27;20085;-58
2023/01/15 16:19:13;;;;;;;3.30;2.80;;;;;;;-146.19;100.00;65364.44;10578396;27;20434;-58
2023/01/15 16:24:33;;;;;;;6.75;3.10;;;;;;;-146.19;100.00;65364.44;10568236;28;20055;-59
2023/01/15 16:29:53;;;;;;;4.43;3.10;;;;;;;-146.19;100.00;65364.44;10585772;27;20051;-59
2023/01/15 16:35:22;;;;;;;6.43;3.58;;;;;;;-146.19;100.00;65364.44;10565317;27;20101;-60
2023/01/15 16:40:43;;;;;;;8.15;3.58;;;;;;;-146.19;100.00;65364.44;10567353;28;20056;-61
2023/01/15 16:46:06;;;;;;;5.13;3.30;;;;;;;20.05;46.01;95868.53;10582128;28;20104;-58
2023/01/15 16:51:25;;;;;;;6.75;3.90;;;;;;;-146.19;100.00;65364.44;10582252;28;20056;-57
2023/01/15 16:56:51;;;;;;;8.10;4.18;;;;;;;-146.19;100.00;65364.44;10584394;27;20073;-59
2023/01/15 17:02:15;;;;;;;9.65;4.43;;;;;;;-146.19;100.00;65364.44;10584587;27;20062;-59
2023/01/15 17:07:36;;;;;;;9.07;4.50;;;;;;;-146.19;100.00;65364.44;10573919;28;20538;-58
2023/01/15 17:12:56;;;;;;;6.68;4.45;;;;;;;20.05;48.09;95884.75;10584239;27;20051;-58
2023/01/15 17:18:24;;;;;;;10.82;4.47;;;;;;;-146.19;100.00;65364.44;10619910;27;20043;-58
2023/01/15 17:23:44;;;;;;;9.53;4.30;;;;;;;-146.19;100.00;65364.44;10623968;27;20050;-58
2023/01/15 17:29:04;;;;;;;9.68;4.57;;;;;;;-146.19;100.00;65364.44;10622792;27;20051;-58
2023/01/15 17:34:24;;;;;;;12.65;4.72;;;;;;;-146.19;100.00;65364.44;10637341;27;20088;-58
2023/01/15 17:39:44;;;;;;;22.00;7.35;;;;;;;-146.19;100.00;65364.44;10608207;28;20057;-58
2023/01/15 17:45:03;;;;;;;15.82;5.85;;;;;;;-146.19;100.00;65364.44;10623114;28;20130;-57
2023/01/15 17:50:24;;;;;;;13.52;5.35;;;;;;;-146.19;100.00;65364.44;10623207;28;20051;-58
2023/01/15 18:07:02;;;;;;;10.73;5.18;;;;;;;-146.19;100.00;65364.44;10623080;28;20196;-58
2023/01/15 18:12:22;;;;;;;13.95;4.43;;;;;;;20.12;51.01;95947.09;10622947;28;20047;-57
2023/01/15 18:17:42;;;;;;;10.98;4.78;;;;;;;20.14;51.05;95958.34;10622775;28;20100;-58
2023/01/15 18:23:02;;;;;;;10.23;4.32;;;;;;;20.15;51.14;95959.94;10636512;27;20051;-58
2023/01/15 18:28:21;;;;;;;10.52;4.88;;;;;;;20.17;51.34;95953.38;10636392;27;20053;-59
2023/01/15 18:33:40;;;;;;;9.85;4.43;;;;;;;20.19;51.36;95964.63;10622592;28;20074;-59
2023/01/15 18:39:04;;;;;;;8.07;3.92;;;;;;;20.21;51.49;95956.97;10622466;28;20047;-57
2023/01/15 18:50:03;;;;;;;8.70;4.15;;;;;;;-146.19;100.00;65364.44;10643499;27;20039;-58
2023/01/15 18:55:26;;;;;;;11.77;5.32;;;;;;;-146.19;100.00;65364.44;10611431;27;20425;-60
2023/01/15 19:00:46;;;;;;;11.70;5.75;;;;;;;-146.19;100.00;65364.44;10608739;27;20055;-60
2023/01/15 19:06:09;;;;;;;12.88;5.53;;;;;;;-146.19;100.00;65364.44;10607514;27;20040;-59
2023/01/15 19:11:29;;;;;;;12.82;5.60;;;;;;;-146.19;100.00;65364.44;10621546;27;20040;-59
2023/01/15 19:28:10;;;;;;;13.55;6.05;;;;;;;-146.19;100.00;65364.44;10607557;27;20449;-60
2023/01/15 19:33:31;;;;;;;16.25;6.25;;;;;;;-146.19;100.00;65364.44;10607402;27;20058;-61
2023/01/15 19:38:50;;;;;;;12.65;6.18;;;;;;;-146.19;100.00;65364.44;10606416;27;20039;-60
2023/01/15 19:55:28;;;;;;;9.70;4.88;;;;;;;-146.19;100.00;65364.44;10606411;27;20093;-59
2023/01/15 20:00:48;;;;;;;11.77;5.30;;;;;;;-146.19;100.00;65364.44;10598296;27;20074;-59
2023/01/15 20:06:08;;;;;;;11.30;5.32;;;;;;;-146.19;100.00;65364.44;10603096;27;20043;-57
2023/01/15 20:13:47;;;;;;;10.60;5.28;;;;;;;-146.19;100.00;65364.44;10583102;28;20560;-56
2023/01/15 20:17:07;;;;;;;9.55;5.15;;;;;;;-146.19;100.00;65364.44;10583186;28;20051;-56
2023/01/15 20:22:30;;;;;;;10.27;4.75;;;;;;;-146.19;100.00;65364.44;10582778;28;20491;-57
2023/01/15 20:27:50;;;;;;;8.60;4.38;;;;;;;20.41;52.25;95928.88;10621567;27;20039;-58
2023/01/15 20:33:09;;;;;;;9.20;4.50;;;;;;;-146.19;100.00;65364.44;10625677;27;20111;-57
2023/01/15 20:38:29;;;;;;;15.18;4.45;;;;;;;20.40;52.61;95921.09;10639023;27;20039;-55
2023/01/15 20:49:28;;;;;;;9.00;4.40;;;;;;;-146.19;100.00;65364.44;10624441;27;20055;-57
2023/01/15 20:54:49;;;;;;;11.38;4.50;;;;;;;-146.19;100.00;65364.44;10623940;27;20043;-57
2023/01/15 21:00:17;;;;;;;9.82;4.35;;;;;;;-146.19;100.00;65364.44;10624660;27;20047;-58
2023/01/15 21:05:39;;;;;;;8.68;3.95;;;;;;;-146.19;100.00;65364.44;10624361;27;20054;-57
2023/01/15 21:10:59;;;;;;;8.13;4.25;;;;;;;-146.19;100.00;65364.44;10624190;27;20047;-57
2023/01/15 21:16:19;;;;;;;9.40;4.15;;;;;;;-146.19;100.00;65364.44;10624069;27;20051;-57
2023/01/15 21:21:39;;;;;;;9.15;4.18;;;;;;;-146.19;100.00;65364.44;10624081;27;20378;-57
2023/01/15 21:26:59;;;;;;;9.57;4.13;;;;;;;20.33;52.65;95932.53;10636875;27;20054;-58
2023/01/15 21:32:18;;;;;;;7.78;3.85;;;;;;;-146.19;100.00;65364.44;10616744;27;20059;-58
2023/01/15 21:37:38;;;;;;;8.00;4.43;;;;;;;-146.19;100.00;65364.44;10565934;28;20341;-57
2023/01/15 21:48:36;;;;;;;7.80;3.75;;;;;;;-146.19;100.00;65364.44;10568472;28;20120;-57
2023/01/15 21:53:56;;;;;;;6.43;3.63;;;;;;;-146.19;100.00;65364.44;10580821;28;20063;-57
2023/01/15 21:59:16;;;;;;;7.32;3.58;;;;;;;-146.19;100.00;65364.44;10580224;28;20048;-57
2023/01/15 22:04:36;;;;;;;6.38;3.78;;;;;;;-146.19;100.00;65364.44;10580273;28;20499;-57
2023/01/15 22:09:56;;;;;;;5.63;3.20;;;;;;;-146.19;100.00;65364.44;10580475;28;20058;-57
2023/01/15 22:15:15;;;;;;;6.32;3.85;;;;;;;-146.19;100.00;65364.44;10580394;28;20055;-58
2023/01/15 22:20:34;;;;;;;5.28;3.33;;;;;;;-146.19;100.00;65364.44;10593522;27;20092;-57
2023/01/15 22:25:54;;;;;;;7.07;3.20;;;;;;;-146.19;100.00;65364.44;10599796;27;20044;-57
2023/01/15 22:31:16;;;;;;;6.10;3.35;;;;;;;-146.19;100.00;65364.44;10607101;27;20074;-57
2023/01/15 22:36:36;;;;;;;7.70;3.25;;;;;;;-146.19;100.00;65364.44;10620319;27;20495;-56
2023/01/15 22:47:33;;;;;;;5.82;2.90;;;;;;;-146.19;100.00;65364.44;10612906;27;20088;-57
2023/01/15 22:52:55;;;;;;;5.93;3.03;;;;;;;-146.19;100.00;65364.44;10629163;27;20517;-56
2023/01/15 22:58:15;;;;;;;4.30;2.92;;;;;;;-146.19;100.00;65364.44;10629533;27;20054;-57
2023/01/15 23:03:35;;;;;;;5.50;2.67;;;;;;;-146.19;100.00;65364.44;10628865;27;20510;-57
2023/01/15 23:08:59;;;;;;;4.82;2.85;;;;;;;-146.19;100.00;65364.44;10642835;27;20517;-57
2023/01/15 23:14:20;;;;;;;6.30;2.85;;;;;;;-146.19;100.00;65364.44;10642700;27;20043;-57
2023/01/15 23:19:39;;;;;;;5.47;2.90;;;;;;;-146.19;100.00;65364.44;10628538;27;20055;-57
2023/01/15 23:24:58;;;;;;;5.32;2.75;;;;;;;-146.19;100.00;65364.44;10628438;27;20051;-57
2023/01/15 23:30:18;;;;;;;4.20;2.88;;;;;;;-146.19;100.00;65364.44;10628281;27;20403;-56
2023/01/15 23:35:37;;;;;;;5.18;2.50;;;;;;;-146.19;100.00;65364.44;10627880;27;20047;-57
2023/01/15 23:40:57;;;;;;;4.30;2.55;;;;;;;-146.19;100.00;65364.44;10641575;27;20047;-57
2023/01/15 23:46:31;;;;;;;5.15;2.88;;;;;;;-146.19;100.00;65364.44;10626929;27;20057;-57
2023/01/15 23:51:51;;;;;;;3.47;2.30;;;;;;;20.03;52.30;95797.00;10627344;27;20055;-56
2023/01/15 23:57:11;;;;;;;4.78;2.65;;;;;;;20.00;52.32;95790.38;10640732;27;20039;-57
